Airfield :
LOGIN :

Register | Disclaimer

   EN    FR    IT 

 










Legend :    VFR   Marginal VFR   IFR   Intensive IFR   Very Intensive IFR
Visi :
Ceiling :
>= 8 km
>= 3000ft
5 to 8 km
1000 to 3000 ft
1500m to 5 km
500 to 1000 ft
800 to 1500m
200 to 500 ft
< 800m
< 200 ft
Symbols :   Thunderstorms  Fog  Heavy snow  Heavy precipitations  Wind > 20 kt
SIGMETs :     Misc.  Thunderstorms  Icing  Turbulence  Mountain Waves  Volcanic Ashes






- Airport Elevation : 364 ft
- IATA code : FRA


EDDF - Frankfurt Int.

CURRENT METAR :
  • 201920Z 07008KT 9999 FEW013 BKN015 02/M00 Q1015 BECMG BKN013

EXPIRED METARs :
  • 201850Z 06005KT 9999 SCT015 02/M00 Q1015 NOSIG
  • 201820Z 07006KT 9999 FEW017 02/00 Q1015 NOSIG
  • 201750Z 08005KT 020V110 9999 BKN019 02/00 Q1015 NOSIG
  • 201720Z 08003KT 9999 SCT021 03/00 Q1015 NOSIG
  • 201650Z 09003KT 9999 FEW021 04/01 Q1015 NOSIG

TAF AMD TAF EDDF
Valid from the 20 at 19:00 until the 22 at 00:00 UTC


201904Z 2019/2124 06004KT 9999 SCT015
BECMG 2019/2021 BKN015
TEMPO 2019/2108 BKN012
PROB30
TEMPO 2100/2109 4000 BR BKN009
BECMG 2108/2110 SCT015



MET'MAP, your aeronautical weather chart ! - Copyright ORBIFLY December 2007 - Disclaimer

ORBIFLY MET'MAP TEAM :

Programming & Development : Alexandra Zaïnal
Concept & Development : Baudouin d'Aumeries
Co-Development & Prog : Marc-Olivier Méhu
Technical & hardware support : Manuel Goepfert

Contact : metmap@orbifly.com




SOURCES & CREDITS :

   NOAA